Home > Products > Valid Products > TAF

000
FTUS43 KGID 251735
TAFGRI
TAF
KGRI 251735Z 2518/2618 10008KT P6SM SKC
     FM260800 14008KT 6SM BR SCT010
     FM261000 VRB06KT 2SM BR BKN008
     FM261600 14008KT P6SM SCT010=



000
FTUS43 KGID 251128
TAFGRI
TAF
KGRI 251128Z 2512/2612 VRB06KT P6SM SKC
     FM251900 13009KT P6SM SKC
     FM260800 14008KT 6SM BR SCT010=



000
FTUS43 KGID 251128
TAFGRI
TAF
KGRI 251128Z 2512/2612 VRB06KT P6SM SKC
     FM251900 13009KT P6SM SKC
     FM260800 14008KT 6SM BR SCT010=



000
FTUS43 KGID 250523
TAFGRI
TAF
KGRI 250523Z 2506/2606 VRB05KT P6SM SKC
     FM252000 13009KT P6SM SKC=



000
FTUS43 KGID 242320
TAFGRI
TAF
KGRI 242320Z 2500/2524 VRB05KT P6SM SKC=



000
FTUS43 KGID 241725
TAFGRI
TAF
KGRI 241725Z 2418/2518 28008KT P6SM SCT200
     FM250000 VRB05KT P6SM SKC=



000
FTUS43 KGID 241139
TAFGRI
TAF
KGRI 241139Z 2412/2512 24009KT 6SM BR SCT200 WS010/27035KT
      TEMPO 2412/2414 4SM BR
     FM241400 26010KT P6SM SCT200
     FM241800 29009KT P6SM SCT200
     FM250000 VRB05KT P6SM SKC=



000
FTUS43 KGID 240541
TAFGRI
TAF
KGRI 240541Z 2406/2506 21009KT 6SM BR SCT003 SCT200 WS010/24038KT
     FM241200 24009KT 6SM BR SCT003 SCT200
     FM241500 28010KT P6SM SCT200
     FM250000 30005KT P6SM SKC=



000
FTUS43 KGID 240259 AAC
TAFGRI
TAF AMD
KGRI 240259Z 2403/2424 VRB06KT 6SM BR FEW150
     FM240600 21008KT 6SM BR SCT007 SCT150
     FM241500 26008KT P6SM FEW150=



000
FTUS43 KGID 240259 AAC
TAFGRI
TAF AMD
KGRI 240259Z 2403/2424 VRB06KT 6SM BR FEW150
     FM240600 21008KT 6SM BR SCT007 SCT150
     FM241500 26008KT P6SM FEW150=



000
FTUS43 KGID 240237 AAB
TAFGRI
TAF AMD
KGRI 240237Z 2403/2424 VRB06KT 5SM BR FEW150
     FM240600 21008KT 6SM BR SCT007 SCT150
     FM241500 26008KT P6SM FEW150=



000
FTUS43 KGID 240237 AAB
TAFGRI
TAF AMD
KGRI 240237Z 2403/2424 VRB06KT 5SM BR FEW150
     FM240600 21008KT 6SM BR SCT007 SCT150
     FM241500 26008KT P6SM FEW150=



000
FTUS43 KGID 240158 AAA
TAFGRI
TAF AMD
KGRI 240158Z 2402/2424 VRB06KT 5SM BR FEW150
     FM240600 21008KT 6SM BR SCT007 SCT150
     FM241500 26008KT P6SM FEW150=



000
FTUS43 KGID 240158 AAA
TAFGRI
TAF AMD
KGRI 240158Z 2402/2424 VRB06KT 5SM BR FEW150
     FM240600 21008KT 6SM BR SCT007 SCT150
     FM241500 26008KT P6SM FEW150=



000
FTUS43 KGID 232320
TAFGRI
TAF
KGRI 232320Z 2400/2424 VRB06KT P6SM FEW150
     FM240600 21008KT 6SM BR SCT007 SCT150
     FM241500 26008KT P6SM FEW150=



000
FTUS43 KGID 231803 AAA
TAFGRI
TAF AMD
KGRI 231803Z 2318/2418 21009KT P6SM SCT007
     FM232300 19006KT P6SM SCT250
     FM240200 20009KT 2SM BR BKN007
     FM241500 25008KT 6SM BR SCT007 BKN015=



000
FTUS43 KGID 231803 AAA
TAFGRI
TAF AMD
KGRI 231803Z 2318/2418 21009KT P6SM SCT007
     FM232300 19006KT P6SM SCT250
     FM240200 20009KT 2SM BR BKN007
     FM241500 25008KT 6SM BR SCT007 BKN015=



000
FTUS43 KGID 231739 CCA
TAFGRI
TAF COR
KGRI 231739Z 2318/2418 21009KT P6SM OVC003
     FM232000 21009KT P6SM OVC007
     FM232300 19006KT P6SM SCT250
     FM240200 20009KT 2SM BR BKN007
     FM241500 25008KT 6SM BR SCT007 BKN015=



000
FTUS43 KGID 231739 CCA
TAFGRI
TAF COR
KGRI 231739Z 2318/2418 21009KT P6SM OVC003
     FM232000 21009KT P6SM OVC007
     FM232300 19006KT P6SM SCT250
     FM240200 20009KT 2SM BR BKN007
     FM241500 25008KT 6SM BR SCT007 BKN015=



000
FTUS43 KGID 231739
TAFGRI
TAF
KGRI 231739Z 2318/2418 21009KT 1/2SM FG OVC003
     FM232000 21009KT P6SM OVC007
     FM232300 19006KT P6SM SCT250
     FM240200 20009KT 2SM BR BKN007
     FM241500 25008KT 6SM BR SCT007 BKN015=



000
FTUS43 KGID 231739
TAFGRI
TAF
KGRI 231739Z 2318/2418 21009KT 1/2SM FG OVC003
     FM232000 21009KT P6SM OVC007
     FM232300 19006KT P6SM SCT250
     FM240200 20009KT 2SM BR BKN007
     FM241500 25008KT 6SM BR SCT007 BKN015=



000
FTUS43 KGID 231720 AAB
TAFGRI
TAF AMD
KGRI 231720Z 2317/2412 20006KT P6SM OVC003
     FM231800 20006KT P6SM BKN015
     FM232100 20008KT P6SM SCT015
     FM240600 21010KT 6SM BR SCT005 SCT200=



000
FTUS43 KGID 231547 AAA
TAFGRI
TAF AMD
KGRI 231547Z 2316/2412 VRB04KT 1/4SM FG VV002
     FM231700 20006KT 2SM BR SCT002 BKN015
     FM231800 20006KT P6SM BKN015
     FM232100 20008KT P6SM SCT015
     FM240600 21010KT 6SM BR SCT005 SCT200=



000
FTUS43 KGID 231149
TAFGRI
TAF
KGRI 231149Z 2312/2412 VRB04KT 1/4SM FG VV002
     FM231600 20006KT 6SM BR SCT002 BKN015
     FM232000 20008KT P6SM SCT015
     FM240600 21010KT 6SM BR SCT005 SCT200=



000
FTUS43 KGID 230555
TAFGRI
TAF
KGRI 230555Z 2306/2406 VRB04KT 1SM BR SCT001 BKN015
      TEMPO 2306/2310 1/4SM FG VV002
     FM231000 VRB04KT 1/4SM FG VV002
     FM231600 19007KT 6SM BR SCT002 BKN015
     FM232000 19008KT P6SM SCT015=



000
FTUS43 KGID 230350 AAH
TAFGRI
TAF AMD
KGRI 230350Z 2304/2324 VRB06KT 2SM BR BKN015 BKN050
      TEMPO 2304/2306 1/2SM FG OVC001
     FM231400 17007KT P6SM FEW150=



000
FTUS43 KGID 230257 AAG
TAFGRI
TAF AMD
KGRI 230257Z 2303/2324 VRB06KT 1/4SM FG BKN015 BKN050
     FM231400 17007KT P6SM FEW150=



000
FTUS43 KGID 230213 AAF
TAFGRI
TAF AMD
KGRI 230213Z 2302/2324 VRB06KT 1/4SM FG SCT017 BKN050
     FM230300 VRB06KT P6SM SCT150
     FM230600 VRB06KT 3SM BR SCT150
     FM231400 17007KT P6SM FEW150=



000
FTUS43 KGID 230213 AAF
TAFGRI
TAF AMD
KGRI 230213Z 2302/2324 VRB06KT 1/4SM FG SCT017 BKN050
     FM230300 VRB06KT P6SM SCT150
     FM230600 VRB06KT 3SM BR SCT150
     FM231400 17007KT P6SM FEW150=



000
FTUS43 KGID 230152 AAE
TAFGRI
TAF AMD
KGRI 230152Z 2302/2324 VRB06KT 1 1/2SM BR SCT017 BKN050
     FM230300 VRB06KT P6SM SCT150
     FM230600 VRB06KT 3SM BR SCT150
     FM231400 17007KT P6SM FEW150=



000
FTUS43 KGID 230152 AAE
TAFGRI
TAF AMD
KGRI 230152Z 2302/2324 VRB06KT 1 1/2SM BR SCT017 BKN050
     FM230300 VRB06KT P6SM SCT150
     FM230600 VRB06KT 3SM BR SCT150
     FM231400 17007KT P6SM FEW150=



000
FTUS43 KGID 230148 AAD
TAFGRI
TAF AMD
KGRI 230148Z 2302/2324 VRB06KT 3SM BR SCT017 BKN050
     FM230200 VRB06KT P6SM SCT150
     FM230600 VRB06KT 3SM BR SCT150
     FM231400 17007KT P6SM FEW150=



000
FTUS43 KGID 230148 AAD
TAFGRI
TAF AMD
KGRI 230148Z 2302/2324 VRB06KT 3SM BR SCT017 BKN050
     FM230200 VRB06KT P6SM SCT150
     FM230600 VRB06KT 3SM BR SCT150
     FM231400 17007KT P6SM FEW150=



000
FTUS43 KGID 230119 AAC
TAFGRI
TAF AMD
KGRI 230119Z 2301/2324 VRB06KT 3SM BR BKN017 BKN050
     FM230200 VRB06KT P6SM SCT150
     FM230600 VRB06KT 3SM BR SCT150
     FM231400 17007KT P6SM FEW150=



000
FTUS43 KGID 230119 AAC
TAFGRI
TAF AMD
KGRI 230119Z 2301/2324 VRB06KT 3SM BR BKN017 BKN050
     FM230200 VRB06KT P6SM SCT150
     FM230600 VRB06KT 3SM BR SCT150
     FM231400 17007KT P6SM FEW150=



000
FTUS43 KGID 230057 AAB
TAFGRI
TAF AMD
KGRI 230057Z 2301/2324 VRB06KT 1 1/2SM BR SCT015 BKN050
     FM230200 VRB06KT P6SM SCT150
     FM230600 VRB06KT 3SM BR SCT150
     FM231400 17007KT P6SM FEW150=



000
FTUS43 KGID 230057 AAB
TAFGRI
TAF AMD
KGRI 230057Z 2301/2324 VRB06KT 1 1/2SM BR SCT015 BKN050
     FM230200 VRB06KT P6SM SCT150
     FM230600 VRB06KT 3SM BR SCT150
     FM231400 17007KT P6SM FEW150=



000
FTUS43 KGID 230041 AAA
TAFGRI
TAF AMD
KGRI 230041Z 2301/2324 VRB06KT 5SM BR OVC050
     FM230200 VRB06KT P6SM SCT150
     FM230600 VRB06KT 3SM BR SCT150
     FM231400 17007KT P6SM FEW150=



000
FTUS43 KGID 230041 AAA
TAFGRI
TAF AMD
KGRI 230041Z 2301/2324 VRB06KT 5SM BR OVC050
     FM230200 VRB06KT P6SM SCT150
     FM230600 VRB06KT 3SM BR SCT150
     FM231400 17007KT P6SM FEW150=



000
FTUS43 KGID 222325
TAFGRI
TAF
KGRI 222325Z 2300/2324 VRB06KT 6SM BR SCT010 BKN025
     FM230200 VRB06KT P6SM SCT150
     FM230600 VRB06KT 3SM BR SCT150
     FM231400 17007KT P6SM FEW150=



000
FTUS43 KGID 222307 AAL
TAFGRI
TAF AMD
KGRI 222307Z 2223/2318 VRB06KT 6SM BR SCT010 BKN025
     FM230200 VRB03KT 6SM BR SCT250=



000
FTUS43 KGID 222307 AAL
TAFGRI
TAF AMD
KGRI 222307Z 2223/2318 VRB06KT 6SM BR SCT010 BKN025
     FM230200 VRB03KT 6SM BR SCT250=



000
FTUS43 KGID 222306 AAK
TAFGRI
TAF AMD
KGRI 222306Z 2223/2318 VRB06KT 6SM BR BKN010 BKN100
     FM230200 VRB03KT 6SM BR SCT250=



000
FTUS43 KGID 222306 AAK
TAFGRI
TAF AMD
KGRI 222306Z 2223/2318 VRB06KT 6SM BR BKN010 BKN100
     FM230200 VRB03KT 6SM BR SCT250=



000
FTUS43 KGID 222302 AAJ
TAFGRI
TAF AMD
KGRI 222302Z 2223/2318 VRB06KT P6SM BKN010 BKN100
     FM230200 VRB03KT 6SM BR SCT250=



000
FTUS43 KGID 222302 AAJ
TAFGRI
TAF AMD
KGRI 222302Z 2223/2318 VRB06KT P6SM BKN010 BKN100
     FM230200 VRB03KT 6SM BR SCT250=



000
FTUS43 KGID 222241 AAI
TAFGRI
TAF AMD
KGRI 222241Z 2223/2318 18010KT 6SM -RA BR VCTS BKN010CB BKN035
     FM222300 20006KT P6SM BKN100
     FM231100 VRB03KT 6SM BR SCT250=



000
FTUS43 KGID 222241 AAI
TAFGRI
TAF AMD
KGRI 222241Z 2223/2318 18010KT 6SM -RA BR VCTS BKN010CB BKN035
     FM222300 20006KT P6SM BKN100
     FM231100 VRB03KT 6SM BR SCT250=



000
FTUS43 KGID 222201 AAH
TAFGRI
TAF AMD
KGRI 222201Z 2222/2318 18010KT 5SM -RA BR VCTS SCT010CB BKN035
     FM222300 20006KT P6SM BKN100
     FM231100 VRB03KT 6SM BR SCT250=



000
FTUS43 KGID 222150 AAG
TAFGRI
TAF AMD
KGRI 222150Z 2222/2318 24011KT 3SM RA BR VCTS SCT010CB BKN040
     FM222200 20006KT P6SM BKN100
     FM231100 VRB03KT 6SM BR SCT250=



000
FTUS43 KGID 222128 AAF
TAFGRI
TAF AMD
KGRI 222128Z 2221/2318 24011KT 2SM RA BR VCTS SCT030CB BKN045
     FM222200 20006KT P6SM BKN100
     FM231100 VRB03KT 6SM BR SCT250=



000
FTUS43 KGID 222116 AAE
TAFGRI
TAF AMD
KGRI 222116Z 2221/2318 24011KT 3SM -RA BR VCTS SCT030CB BKN045
     FM222200 20006KT P6SM BKN100
     FM231100 VRB03KT 6SM BR SCT250=



000
FTUS43 KGID 222104 AAD
TAFGRI
TAF AMD
KGRI 222104Z 2221/2318 24011KT 1SM RA VCTS SCT030CB BKN045
     FM222200 20006KT P6SM BKN100
     FM231100 VRB03KT 6SM BR SCT250=



000
FTUS43 KGID 221951 AAC
TAFGRI
TAF AMD
KGRI 221951Z 2220/2318 19011KT P6SM -SHRA VCTS BKN040CB BKN100
      OVC250
      TEMPO 2220/2221 24011G21KT 2SM TSRA OVC030CB
     FM222200 20006KT P6SM BKN100
     FM231100 VRB03KT 6SM BR SCT250=



000
FTUS43 KGID 221942 AAB
TAFGRI
TAF AMD
KGRI 221942Z 2220/2318 19011KT P6SM -SHRA VCTS BKN040CB BKN100
      OVC250
      TEMPO 2220/2221 24011G21KT 2SM -TSRA OVC030CB
     FM222200 20006KT P6SM BKN100
     FM231100 VRB03KT 6SM BR SCT250=



000
FTUS43 KGID 221920 AAA
TAFGRI
TAF AMD
KGRI 221920Z 2219/2318 19011KT P6SM -SHRA VCTS BKN040CB BKN100
      OVC250
      TEMPO 2219/2221 24011KT 2SM -TSRA OVC030CB
     FM222200 20006KT P6SM BKN100
     FM231100 VRB03KT 6SM BR SCT250=



    US Dept of Commerce
    National Oceanic and Atmospheric Administration
    National Weather Service
    1325 East West Highway
    Silver Spring, MD 20910
    Page Author: NWS Internet Services Team
Disclaimer
Information Quality
Credits
Glossary
Privacy Policy
Freedom of Information Act (FOIA)
About Us
Career Opportunities